createdAt,value
2023-01-29T00:00:59.622Z,0.00
2023-01-29T00:01:59.658Z,0.00
2023-01-29T00:02:59.700Z,0.00
2023-01-29T00:03:59.588Z,0.00
2023-01-29T00:05:04.865Z,0.00
2023-01-29T00:05:59.584Z,0.00
2023-01-29T00:06:59.555Z,0.00
2023-01-29T00:07:59.552Z,0.00
2023-01-29T00:08:59.533Z,0.00
2023-01-29T00:09:59.533Z,0.00
2023-01-29T00:10:59.509Z,0.00
2023-01-29T00:11:59.511Z,0.00
2023-01-29T00:12:59.502Z,0.00
2023-01-29T00:13:59.487Z,0.00
2023-01-29T00:14:59.482Z,0.00
2023-01-29T00:15:59.464Z,0.00
2023-01-29T00:16:59.475Z,0.00
2023-01-29T00:17:59.434Z,0.00
2023-01-29T00:18:59.429Z,0.00
2023-01-29T00:19:59.450Z,0.00
2023-01-29T00:20:59.405Z,0.00
2023-01-29T00:21:59.395Z,0.00
2023-01-29T00:22:59.383Z,0.00
2023-01-29T00:23:59.419Z,0.00
2023-01-29T00:24:59.375Z,0.00
2023-01-29T00:25:59.374Z,0.00
2023-01-29T00:26:59.345Z,0.00
2023-01-29T00:27:59.328Z,0.00
2023-01-29T00:28:59.323Z,0.00
2023-01-29T00:29:59.315Z,0.00
2023-01-29T00:30:59.383Z,0.00
2023-01-29T00:31:59.534Z,0.00
2023-01-29T00:32:59.276Z,0.00
2023-01-29T00:33:59.260Z,0.00
2023-01-29T00:34:59.266Z,0.00
2023-01-29T00:35:59.242Z,0.00
2023-01-29T00:36:59.238Z,0.00
2023-01-29T00:37:59.219Z,0.00
2023-01-29T00:38:59.231Z,0.00
2023-01-29T00:39:59.217Z,0.00
2023-01-29T00:40:59.218Z,0.00
2023-01-29T00:41:59.204Z,0.00
2023-01-29T00:42:59.174Z,0.00
2023-01-29T00:43:59.162Z,0.00
2023-01-29T00:44:59.159Z,0.00
2023-01-29T00:46:05.680Z,0.00
2023-01-29T00:46:59.193Z,0.00
2023-01-29T00:47:59.116Z,0.00
2023-01-29T00:49:00.859Z,0.00
2023-01-29T00:49:59.112Z,0.00
2023-01-29T00:50:59.161Z,0.00
2023-01-29T00:51:59.070Z,0.00
2023-01-29T00:52:59.073Z,0.00
2023-01-29T00:53:59.051Z,0.00
2023-01-29T00:54:59.060Z,0.00
2023-01-29T00:55:59.035Z,0.00
2023-01-29T00:56:59.022Z,0.00
2023-01-29T00:57:59.008Z,0.00
2023-01-29T00:58:59.006Z,0.00
2023-01-29T00:59:58.998Z,0.00
2023-01-29T01:00:58.998Z,0.00
2023-01-29T01:01:59.000Z,0.00
2023-01-29T01:02:58.961Z,0.00
2023-01-29T01:03:58.956Z,0.00
2023-01-29T01:04:58.983Z,0.00
2023-01-29T01:05:58.921Z,0.00
2023-01-29T01:06:58.917Z,0.00
2023-01-29T01:07:58.906Z,0.00
2023-01-29T01:08:58.892Z,0.00
2023-01-29T01:09:58.895Z,0.00
2023-01-29T01:10:58.874Z,0.00
2023-01-29T01:11:58.867Z,0.00
2023-01-29T01:12:58.855Z,0.00
2023-01-29T01:13:58.834Z,0.00
2023-01-29T01:14:58.838Z,0.00
2023-01-29T01:15:58.855Z,0.00
2023-01-29T01:16:58.810Z,0.00
2023-01-29T01:17:58.799Z,0.00
2023-01-29T01:18:58.784Z,0.00
2023-01-29T01:19:58.806Z,0.00
2023-01-29T01:20:58.775Z,0.00
2023-01-29T01:21:58.750Z,0.00
2023-01-29T01:22:58.748Z,0.00
2023-01-29T01:23:58.752Z,0.00
2023-01-29T01:24:58.736Z,0.00
2023-01-29T01:25:58.708Z,0.00
2023-01-29T01:26:58.711Z,0.00
2023-01-29T01:28:03.724Z,0.00
2023-01-29T01:28:58.674Z,0.00
2023-01-29T01:30:00.635Z,0.00
2023-01-29T01:30:58.697Z,0.00
2023-01-29T01:31:58.673Z,0.00
2023-01-29T01:32:58.633Z,0.00
2023-01-29T01:33:58.630Z,0.00
2023-01-29T01:34:58.642Z,0.00
2023-01-29T01:35:58.608Z,0.00
2023-01-29T01:36:58.593Z,0.00
2023-01-29T01:37:58.590Z,0.00
2023-01-29T01:38:58.574Z,0.00
2023-01-29T01:39:58.574Z,0.00
2023-01-29T01:40:58.555Z,0.00
2023-01-29T01:41:58.548Z,0.00
2023-01-29T01:42:58.546Z,0.00
2023-01-29T01:43:58.524Z,0.00
2023-01-29T01:44:58.517Z,0.00
2023-01-29T01:45:58.506Z,0.00
2023-01-29T01:46:58.479Z,0.00
2023-01-29T01:47:58.475Z,0.00
2023-01-29T01:48:58.465Z,0.00
2023-01-29T01:49:58.492Z,0.00
2023-01-29T01:50:58.437Z,0.00
2023-01-29T01:51:58.435Z,0.00
2023-01-29T01:52:58.415Z,0.00
2023-01-29T01:53:58.414Z,0.00
2023-01-29T01:54:58.408Z,0.00
2023-01-29T01:55:58.386Z,0.00
2023-01-29T01:56:58.374Z,0.00
2023-01-29T01:57:58.373Z,0.00
2023-01-29T01:58:58.357Z,0.00
2023-01-29T01:59:58.363Z,0.00
2023-01-29T02:04:36.533Z,0.00
2023-01-29T02:05:37.526Z,0.00
2023-01-29T02:06:37.501Z,0.00
2023-01-29T02:07:37.503Z,0.00
2023-01-29T02:08:37.495Z,0.00
2023-01-29T02:09:37.474Z,0.00
2023-01-29T02:10:37.469Z,0.00
2023-01-29T02:11:37.453Z,0.00
2023-01-29T02:12:37.435Z,0.00
2023-01-29T02:13:37.440Z,0.00
2023-01-29T02:14:37.419Z,0.00
2023-01-29T02:15:37.423Z,0.00
2023-01-29T02:16:37.416Z,0.00
2023-01-29T02:17:37.449Z,0.00
2023-01-29T02:18:37.372Z,0.00
2023-01-29T02:19:37.366Z,0.00
2023-01-29T02:20:37.369Z,0.00
2023-01-29T02:21:37.350Z,0.00
2023-01-29T02:22:37.329Z,0.00
2023-01-29T02:23:37.337Z,0.00
2023-01-29T02:24:37.375Z,0.00
2023-01-29T02:25:37.309Z,0.00
2023-01-29T02:26:37.285Z,0.00
2023-01-29T02:27:37.280Z,0.00
2023-01-29T02:28:37.269Z,0.00
2023-01-29T02:29:37.261Z,0.00
2023-01-29T02:30:37.250Z,0.00
2023-01-29T02:31:37.261Z,0.00
2023-01-29T02:32:37.227Z,0.00
2023-01-29T02:33:37.215Z,0.00
2023-01-29T02:34:37.202Z,0.00
2023-01-29T02:35:37.213Z,0.00
2023-01-29T02:36:37.175Z,0.00
2023-01-29T02:37:37.171Z,0.00
2023-01-29T02:38:37.164Z,0.00
2023-01-29T02:39:37.149Z,0.00
2023-01-29T02:40:37.143Z,0.00
2023-01-29T02:41:37.128Z,0.00
2023-01-29T02:42:37.113Z,0.00
2023-01-29T02:43:37.109Z,0.00
2023-01-29T02:44:37.094Z,0.00
2023-01-29T02:45:37.116Z,0.00
2023-01-29T02:46:37.068Z,0.00
2023-01-29T02:47:37.068Z,0.00
2023-01-29T02:48:37.054Z,0.00
2023-01-29T02:49:37.047Z,0.00
2023-01-29T02:50:37.036Z,0.00
2023-01-29T02:51:37.018Z,0.00
2023-01-29T02:52:37.005Z,0.00
2023-01-29T02:53:37.000Z,0.00
2023-01-29T02:54:36.982Z,0.00
2023-01-29T02:55:37.040Z,0.00
2023-01-29T02:56:36.976Z,0.00
2023-01-29T02:57:36.964Z,0.00
2023-01-29T02:58:36.940Z,0.00
2023-01-29T02:59:36.943Z,0.00
2023-01-29T03:00:36.928Z,0.00
2023-01-29T03:01:36.921Z,0.00
2023-01-29T03:02:36.923Z,0.00
2023-01-29T03:03:36.893Z,0.00
2023-01-29T03:04:36.875Z,0.00
2023-01-29T03:05:36.883Z,0.00
2023-01-29T03:06:36.853Z,0.00
2023-01-29T03:07:36.845Z,0.00
2023-01-29T03:08:36.844Z,0.00
2023-01-29T03:09:36.824Z,0.00
2023-01-29T03:10:36.822Z,0.00
2023-01-29T03:11:36.804Z,0.00
2023-01-29T03:12:36.790Z,0.00
2023-01-29T03:13:36.779Z,0.00
2023-01-29T03:14:36.766Z,0.00
2023-01-29T03:15:36.773Z,0.00
2023-01-29T03:16:36.779Z,0.00
2023-01-29T03:17:36.746Z,0.00
2023-01-29T03:18:36.721Z,0.00
2023-01-29T03:19:36.723Z,0.00
2023-01-29T03:20:36.710Z,0.00
2023-01-29T03:21:36.706Z,0.00
2023-01-29T03:22:36.678Z,0.00
2023-01-29T03:23:36.673Z,0.00
2023-01-29T03:24:36.657Z,0.00
2023-01-29T03:25:36.664Z,0.00
2023-01-29T03:26:36.640Z,0.00
2023-01-29T03:27:36.628Z,0.00
2023-01-29T03:28:36.614Z,0.00
2023-01-29T03:29:36.616Z,0.00
2023-01-29T03:30:36.606Z,0.00
2023-01-29T03:31:36.677Z,0.00
2023-01-29T03:32:36.566Z,0.00
2023-01-29T03:33:36.562Z,0.00
2023-01-29T03:34:36.546Z,0.00
2023-01-29T03:35:36.576Z,0.00
2023-01-29T03:36:36.532Z,0.00
2023-01-29T03:37:36.529Z,0.00
2023-01-29T03:38:36.504Z,0.00
2023-01-29T03:39:36.497Z,0.00
2023-01-29T03:40:36.497Z,0.00
2023-01-29T03:41:36.474Z,0.00
2023-01-29T03:42:36.463Z,0.00
2023-01-29T03:43:36.459Z,0.00
2023-01-29T03:44:36.440Z,0.00
2023-01-29T03:45:36.512Z,0.00
2023-01-29T03:46:36.428Z,0.00
2023-01-29T03:47:36.409Z,0.00
2023-01-29T03:48:36.396Z,0.00
2023-01-29T03:49:36.393Z,0.00
2023-01-29T03:50:36.373Z,0.00
2023-01-29T03:51:36.381Z,0.00
2023-01-29T03:52:36.355Z,0.00
2023-01-29T03:53:36.364Z,0.00
2023-01-29T03:54:36.327Z,0.00
2023-01-29T03:55:36.327Z,0.00
2023-01-29T03:56:36.318Z,0.00
2023-01-29T03:57:36.301Z,0.00
2023-01-29T03:58:36.290Z,0.00
2023-01-29T03:59:36.283Z,0.00
2023-01-29T04:00:36.266Z,0.00
2023-01-29T04:01:36.345Z,0.00
2023-01-29T04:02:36.259Z,0.00
2023-01-29T04:03:36.243Z,0.00
2023-01-29T04:04:36.231Z,0.00
2023-01-29T04:05:36.216Z,0.00
2023-01-29T04:06:36.206Z,0.00
2023-01-29T04:07:36.189Z,0.00
2023-01-29T04:08:36.184Z,0.00
2023-01-29T04:09:36.174Z,0.00
2023-01-29T04:10:36.193Z,0.00
2023-01-29T04:11:36.170Z,0.00
2023-01-29T04:12:36.137Z,0.00
2023-01-29T04:13:36.137Z,0.00
2023-01-29T04:14:36.117Z,0.00
2023-01-29T04:15:36.107Z,0.00
2023-01-29T04:16:36.144Z,0.00
2023-01-29T04:17:36.085Z,0.00
2023-01-29T04:18:36.076Z,0.00
2023-01-29T04:19:36.065Z,0.00
2023-01-29T04:20:36.050Z,0.00
2023-01-29T04:21:36.054Z,0.00
2023-01-29T04:22:36.023Z,0.00
2023-01-29T04:23:36.019Z,0.00
2023-01-29T04:24:36.010Z,0.00
2023-01-29T04:25:35.993Z,0.00
2023-01-29T04:26:35.995Z,0.00
2023-01-29T04:27:35.974Z,0.00
2023-01-29T04:28:35.961Z,0.00
2023-01-29T04:29:35.954Z,0.00
2023-01-29T04:30:35.998Z,0.00
2023-01-29T04:31:36.139Z,0.00
2023-01-29T04:32:35.917Z,0.00
2023-01-29T04:33:35.944Z,0.00
2023-01-29T04:34:35.898Z,0.00
2023-01-29T04:35:35.888Z,0.00
2023-01-29T04:36:35.890Z,0.00
2023-01-29T04:37:35.868Z,0.00
2023-01-29T04:38:35.849Z,0.00
2023-01-29T04:39:35.843Z,0.00
2023-01-29T04:40:35.827Z,0.00
2023-01-29T04:41:35.831Z,0.00
2023-01-29T04:42:35.809Z,0.00
2023-01-29T04:43:35.803Z,0.00
2023-01-29T04:44:35.786Z,0.00
2023-01-29T04:45:35.780Z,0.00
2023-01-29T04:46:35.778Z,0.00
2023-01-29T04:47:35.784Z,0.00
2023-01-29T04:48:35.743Z,0.00
2023-01-29T04:49:35.737Z,0.00
2023-01-29T04:50:35.723Z,0.00
2023-01-29T04:51:35.722Z,0.00
2023-01-29T04:52:35.700Z,0.00
2023-01-29T04:53:35.701Z,0.00
2023-01-29T04:54:35.678Z,0.00
2023-01-29T04:55:35.665Z,0.00
2023-01-29T04:56:35.676Z,0.00
2023-01-29T04:57:35.642Z,0.00
2023-01-29T04:58:35.638Z,0.00
2023-01-29T04:59:35.629Z,0.00
2023-01-29T05:00:35.620Z,0.00
2023-01-29T05:01:35.720Z,0.00
2023-01-29T05:02:35.632Z,0.00
2023-01-29T05:03:35.581Z,0.00
2023-01-29T05:04:35.567Z,0.00
2023-01-29T05:05:35.568Z,0.00
2023-01-29T05:06:35.556Z,0.00
2023-01-29T05:07:35.541Z,0.00
2023-01-29T05:08:35.522Z,0.00
2023-01-29T05:09:35.521Z,0.00
2023-01-29T05:10:35.508Z,0.00
2023-01-29T05:11:35.505Z,0.00
2023-01-29T05:12:35.479Z,0.00
2023-01-29T05:13:35.478Z,0.00
2023-01-29T05:14:35.466Z,0.00
2023-01-29T05:15:35.457Z,0.00
2023-01-29T05:16:35.450Z,0.00
2023-01-29T05:17:35.450Z,0.00
2023-01-29T05:18:35.420Z,0.00
2023-01-29T05:19:35.413Z,0.00
2023-01-29T05:20:35.413Z,0.00
2023-01-29T05:21:35.401Z,0.00
2023-01-29T05:22:35.370Z,0.00
2023-01-29T05:23:35.371Z,0.00
2023-01-29T05:24:35.381Z,0.00
2023-01-29T05:25:35.340Z,0.00
2023-01-29T05:26:35.346Z,0.00
2023-01-29T05:27:35.322Z,0.00
2023-01-29T05:28:35.316Z,0.00
2023-01-29T05:29:35.320Z,0.00
2023-01-29T05:30:35.328Z,0.00
2023-01-29T05:31:35.328Z,0.00
2023-01-29T05:32:35.266Z,0.00
2023-01-29T05:33:35.307Z,0.00
2023-01-29T05:34:35.291Z,0.00
2023-01-29T05:35:35.235Z,0.00
2023-01-29T05:36:35.242Z,0.00
2023-01-29T05:37:35.248Z,0.00
2023-01-29T05:38:35.228Z,0.00
2023-01-29T05:39:35.263Z,0.00
2023-01-29T05:40:35.179Z,0.00
2023-01-29T05:41:35.179Z,0.00
2023-01-29T05:42:35.160Z,0.00
2023-01-29T05:43:35.149Z,0.00
2023-01-29T05:44:35.134Z,0.00
2023-01-29T05:45:35.142Z,0.00
2023-01-29T05:46:35.204Z,0.00
2023-01-29T05:47:35.112Z,0.00
2023-01-29T05:48:35.090Z,0.00
2023-01-29T05:49:36.382Z,0.00
2023-01-29T05:50:35.076Z,0.00
2023-01-29T05:51:35.076Z,0.00
2023-01-29T05:52:35.052Z,0.00
2023-01-29T05:53:35.044Z,0.00
2023-01-29T05:54:35.024Z,0.00
2023-01-29T05:55:35.017Z,0.00
2023-01-29T05:56:35.014Z,0.00
2023-01-29T05:57:34.999Z,0.00
2023-01-29T05:58:34.992Z,0.00
2023-01-29T05:59:34.977Z,0.00
2023-01-29T06:00:34.959Z,0.00
2023-01-29T06:01:34.989Z,0.00
2023-01-29T06:02:34.977Z,0.00
2023-01-29T06:03:34.936Z,0.00
2023-01-29T06:04:34.938Z,0.00
2023-01-29T06:05:34.921Z,0.00
2023-01-29T06:06:34.900Z,0.00
2023-01-29T06:07:34.887Z,0.00
2023-01-29T06:08:34.871Z,0.00
2023-01-29T06:09:34.867Z,0.00
2023-01-29T06:10:34.849Z,0.00
2023-01-29T06:11:34.859Z,0.00
2023-01-29T06:12:34.847Z,0.00
2023-01-29T06:13:34.846Z,0.00
2023-01-29T06:14:34.807Z,0.00
2023-01-29T06:15:34.806Z,0.00
2023-01-29T06:16:34.851Z,0.00
2023-01-29T06:17:35.803Z,0.00
2023-01-29T06:18:34.805Z,0.00
2023-01-29T06:19:34.771Z,0.00
2023-01-29T06:20:34.746Z,0.00
2023-01-29T06:21:34.748Z,0.00
2023-01-29T06:22:34.728Z,0.00
2023-01-29T06:23:34.727Z,0.00
2023-01-29T06:24:34.699Z,0.00
2023-01-29T06:25:34.690Z,0.00
2023-01-29T06:26:34.728Z,0.00
2023-01-29T06:27:34.669Z,0.00
2023-01-29T06:28:34.659Z,0.00
2023-01-29T06:29:34.654Z,0.00
2023-01-29T06:30:34.647Z,0.00
2023-01-29T06:31:39.342Z,0.00
2023-01-29T06:32:34.650Z,0.00
2023-01-29T06:33:34.605Z,0.00
2023-01-29T06:34:34.591Z,0.00
2023-01-29T06:35:34.585Z,0.00
2023-01-29T06:36:34.633Z,0.00
2023-01-29T06:37:34.559Z,0.00
2023-01-29T06:38:34.547Z,0.00
2023-01-29T06:39:34.539Z,0.00
2023-01-29T06:40:34.528Z,0.00
2023-01-29T06:41:34.533Z,0.00
2023-01-29T06:42:34.901Z,0.00
2023-01-29T06:43:34.503Z,0.00
2023-01-29T06:44:34.483Z,0.00
2023-01-29T06:45:34.594Z,0.00
2023-01-29T06:46:34.480Z,0.00
2023-01-29T06:47:34.473Z,4.00
2023-01-29T06:48:34.442Z,0.00
2023-01-29T06:49:34.441Z,4.00
2023-01-29T06:50:34.414Z,0.00
2023-01-29T06:51:34.410Z,0.00
2023-01-29T06:52:34.402Z,4.00
2023-01-29T06:53:34.386Z,4.00
2023-01-29T06:54:34.371Z,8.00
2023-01-29T06:55:34.368Z,8.00
2023-01-29T06:56:34.353Z,8.00
2023-01-29T06:57:34.357Z,8.00
2023-01-29T06:58:34.329Z,12.00
2023-01-29T06:59:34.324Z,8.00
2023-01-29T07:00:34.303Z,12.00
2023-01-29T07:01:36.352Z,12.00
2023-01-29T07:02:34.296Z,12.00
2023-01-29T07:03:34.279Z,12.00
2023-01-29T07:04:34.269Z,16.00
2023-01-29T07:05:34.276Z,20.00
2023-01-29T07:06:34.240Z,20.00
2023-01-29T07:07:34.246Z,24.00
2023-01-29T07:08:34.218Z,24.00
2023-01-29T07:09:34.217Z,24.00
2023-01-29T07:10:34.197Z,28.00
2023-01-29T07:11:34.204Z,28.00
2023-01-29T07:12:34.200Z,28.00
2023-01-29T07:13:34.172Z,32.00
2023-01-29T07:14:34.156Z,36.00
2023-01-29T07:15:36.389Z,44.00
2023-01-29T07:16:34.174Z,48.00
2023-01-29T07:17:34.151Z,52.00
2023-01-29T07:18:34.119Z,52.00
2023-01-29T07:19:34.108Z,56.00
2023-01-29T07:20:34.091Z,64.00
2023-01-29T07:21:34.089Z,72.00
2023-01-29T07:22:34.079Z,88.00
2023-01-29T07:23:34.063Z,100.00
2023-01-29T07:24:34.103Z,112.00
2023-01-29T07:25:34.039Z,124.00
2023-01-29T07:26:34.042Z,136.00
2023-01-29T07:27:34.035Z,144.00
2023-01-29T07:28:34.001Z,152.00
2023-01-29T07:29:33.996Z,160.00
2023-01-29T07:30:33.991Z,168.00
2023-01-29T07:31:34.183Z,172.00
2023-01-29T07:32:34.593Z,176.00
2023-01-29T07:33:33.949Z,176.00
2023-01-29T07:34:33.967Z,176.00
2023-01-29T07:35:33.928Z,180.00
2023-01-29T07:36:33.917Z,180.00
2023-01-29T07:37:33.959Z,188.00
2023-01-29T07:38:33.893Z,196.00
2023-01-29T07:39:33.902Z,204.00
2023-01-29T07:40:33.868Z,212.00
2023-01-29T07:41:33.863Z,224.00
2023-01-29T07:42:33.859Z,232.00
2023-01-29T07:43:33.843Z,232.00
2023-01-29T07:44:33.825Z,232.00
2023-01-29T07:45:33.843Z,232.00
2023-01-29T07:46:33.803Z,244.00
2023-01-29T07:47:33.809Z,256.00
2023-01-29T07:48:33.790Z,272.00
2023-01-29T07:49:33.775Z,280.00
2023-01-29T07:50:33.762Z,288.00
2023-01-29T07:51:33.757Z,292.00
2023-01-29T07:52:33.748Z,296.00
2023-01-29T07:53:33.730Z,292.00
2023-01-29T07:54:33.721Z,292.00
2023-01-29T07:55:33.712Z,292.00
2023-01-29T07:56:33.698Z,284.00
2023-01-29T07:57:33.698Z,276.00
2023-01-29T07:58:35.717Z,264.00
2023-01-29T07:59:33.667Z,248.00
2023-01-29T08:00:33.678Z,240.00
2023-01-29T08:01:33.811Z,224.00
2023-01-29T08:02:33.699Z,216.00
2023-01-29T08:03:33.623Z,216.00
2023-01-29T08:04:33.614Z,220.00
2023-01-29T08:05:33.597Z,224.00
2023-01-29T08:06:33.597Z,228.00
2023-01-29T08:07:33.635Z,228.00
2023-01-29T08:08:33.569Z,236.00
2023-01-29T08:09:33.600Z,240.00
2023-01-29T08:10:33.655Z,248.00
2023-01-29T08:11:33.533Z,264.00
2023-01-29T08:12:33.547Z,280.00
2023-01-29T08:13:33.547Z,300.00
2023-01-29T08:14:33.507Z,316.00
2023-01-29T08:15:33.529Z,336.00
2023-01-29T08:16:33.501Z,352.00
2023-01-29T08:17:33.480Z,376.00
2023-01-29T08:18:33.460Z,400.00
2023-01-29T08:19:33.444Z,436.00
2023-01-29T08:20:33.446Z,472.00
2023-01-29T08:21:33.435Z,508.00
2023-01-29T08:22:33.435Z,540.00
2023-01-29T08:23:33.434Z,572.00
2023-01-29T08:24:47.457Z,564.00
2023-01-29T08:25:33.464Z,520.00
2023-01-29T08:26:33.385Z,472.00
2023-01-29T08:27:33.370Z,452.00
2023-01-29T08:28:33.357Z,444.00
2023-01-29T08:29:33.368Z,460.00
2023-01-29T08:30:33.336Z,480.00
2023-01-29T08:31:33.548Z,536.00
2023-01-29T08:32:33.324Z,656.00
2023-01-29T08:33:39.176Z,860.00
2023-01-29T08:34:33.297Z,1004.00
2023-01-29T08:35:33.278Z,1104.00
2023-01-29T08:36:33.267Z,1224.00
2023-01-29T08:37:33.266Z,1324.00
2023-01-29T08:38:33.263Z,1388.00
2023-01-29T08:39:34.476Z,1412.00
2023-01-29T08:40:33.257Z,1376.00
2023-01-29T08:41:33.210Z,1332.00
2023-01-29T08:42:33.214Z,1384.00
2023-01-29T08:43:33.189Z,1436.00
2023-01-29T08:44:33.185Z,1380.00
2023-01-29T08:45:33.172Z,1336.00
2023-01-29T08:46:33.158Z,1344.00
2023-01-29T08:47:33.152Z,1404.00
2023-01-29T08:48:33.140Z,1328.00
2023-01-29T08:49:33.121Z,1140.00
2023-01-29T08:50:33.145Z,984.00
2023-01-29T08:51:33.103Z,860.00
2023-01-29T08:52:33.113Z,812.00
2023-01-29T08:53:33.083Z,816.00
2023-01-29T08:54:33.069Z,844.00
2023-01-29T08:55:33.078Z,1000.00
2023-01-29T08:56:33.048Z,1084.00
2023-01-29T08:57:33.046Z,1096.00
2023-01-29T08:58:33.040Z,1096.00
2023-01-29T08:59:33.014Z,1048.00
2023-01-29T09:00:33.017Z,1008.00
2023-01-29T09:01:33.064Z,1032.00
2023-01-29T09:02:33.037Z,1064.00
2023-01-29T09:03:32.994Z,1060.00
2023-01-29T09:04:32.966Z,1040.00
2023-01-29T09:05:32.947Z,1004.00
2023-01-29T09:06:32.938Z,1028.00
2023-01-29T09:07:32.954Z,996.00
2023-01-29T09:08:32.917Z,956.00
2023-01-29T09:09:32.906Z,900.00
2023-01-29T09:10:32.890Z,852.00
2023-01-29T09:11:32.881Z,828.00
2023-01-29T09:12:32.881Z,800.00
2023-01-29T09:13:32.865Z,796.00
2023-01-29T09:14:32.844Z,804.00
2023-01-29T09:15:32.837Z,832.00
2023-01-29T09:16:32.858Z,876.00
2023-01-29T09:17:32.831Z,944.00
2023-01-29T09:18:32.809Z,1044.00
2023-01-29T09:19:32.813Z,1100.00
2023-01-29T09:20:32.871Z,1084.00
2023-01-29T09:21:32.782Z,1088.00
2023-01-29T09:22:32.788Z,1068.00
2023-01-29T09:23:32.753Z,1032.00
2023-01-29T09:24:32.745Z,1016.00
2023-01-29T09:25:32.735Z,1032.00
2023-01-29T09:26:32.795Z,1096.00
2023-01-29T09:27:32.722Z,1180.00
2023-01-29T09:28:32.698Z,1212.00
2023-01-29T09:29:35.690Z,1192.00
2023-01-29T09:30:32.713Z,1172.00
2023-01-29T09:31:32.770Z,1184.00
2023-01-29T09:33:02.635Z,1172.00
2023-01-29T09:33:32.667Z,1172.00
2023-01-29T09:34:32.631Z,1192.00
2023-01-29T09:35:32.822Z,1188.00
2023-01-29T09:36:32.609Z,1164.00
2023-01-29T09:37:32.602Z,1152.00
2023-01-29T09:38:32.608Z,1104.00
2023-01-29T09:39:32.580Z,1160.00
2023-01-29T09:40:32.564Z,1148.00
2023-01-29T09:41:32.567Z,1168.00
2023-01-29T09:42:33.926Z,1156.00
2023-01-29T09:43:32.543Z,1152.00
2023-01-29T09:44:32.524Z,1104.00
2023-01-29T09:45:32.513Z,1092.00
2023-01-29T09:46:32.499Z,1188.00
2023-01-29T09:47:32.492Z,1196.00
2023-01-29T09:48:32.490Z,1196.00
2023-01-29T09:49:32.469Z,1268.00
2023-01-29T09:50:32.489Z,1336.00
2023-01-29T09:51:32.450Z,1328.00
2023-01-29T09:52:32.445Z,1304.00
2023-01-29T09:53:32.438Z,1240.00
2023-01-29T09:54:32.414Z,1232.00
2023-01-29T09:55:32.440Z,1252.00
2023-01-29T09:56:32.391Z,1244.00
2023-01-29T09:57:32.442Z,1268.00
2023-01-29T09:58:32.423Z,1284.00
2023-01-29T09:59:32.385Z,1312.00
2023-01-29T10:00:32.350Z,1332.00
2023-01-29T10:01:32.422Z,1296.00
2023-01-29T10:02:32.324Z,1244.00
2023-01-29T10:03:32.333Z,1120.00
2023-01-29T10:04:32.375Z,1104.00
2023-01-29T10:05:32.296Z,1132.00
2023-01-29T10:06:32.282Z,1140.00
2023-01-29T10:07:32.274Z,1068.00
2023-01-29T10:08:32.269Z,988.00
2023-01-29T10:09:32.256Z,844.00
2023-01-29T10:10:32.246Z,872.00
2023-01-29T10:11:32.229Z,1012.00
2023-01-29T10:12:32.219Z,1160.00
2023-01-29T10:13:32.312Z,1328.00
2023-01-29T10:14:32.195Z,1400.00
2023-01-29T10:15:32.187Z,1504.00
2023-01-29T10:16:32.220Z,1592.00
2023-01-29T10:17:32.174Z,1636.00
2023-01-29T10:18:32.163Z,1652.00
2023-01-29T10:19:32.145Z,1732.00
2023-01-29T10:20:32.133Z,1784.00
2023-01-29T10:21:32.126Z,1812.00
2023-01-29T10:22:32.107Z,1844.00
2023-01-29T10:23:34.400Z,1904.00
2023-01-29T10:24:32.085Z,1960.00
2023-01-29T10:25:32.080Z,2056.00
2023-01-29T10:26:32.105Z,2120.00
2023-01-29T10:27:32.068Z,2088.00
2023-01-29T10:28:32.050Z,2036.00
2023-01-29T10:29:32.035Z,2052.00
2023-01-29T10:30:32.026Z,2088.00
2023-01-29T10:31:32.173Z,2112.00
2023-01-29T10:32:32.034Z,2016.00
2023-01-29T10:33:48.758Z,1940.00
2023-01-29T10:34:31.985Z,1908.00
2023-01-29T10:35:31.973Z,1848.00
2023-01-29T10:36:31.955Z,1788.00
2023-01-29T10:37:31.954Z,1704.00
2023-01-29T10:38:31.942Z,1580.00
2023-01-29T10:39:31.939Z,1468.00
2023-01-29T10:40:31.940Z,1360.00
2023-01-29T10:41:31.907Z,1348.00
2023-01-29T10:42:31.893Z,1328.00
2023-01-29T10:43:31.895Z,1232.00
2023-01-29T10:44:31.883Z,1180.00
2023-01-29T10:45:31.879Z,1244.00
2023-01-29T10:46:31.847Z,1340.00
2023-01-29T10:47:31.912Z,1372.00
2023-01-29T10:48:31.859Z,1288.00
2023-01-29T10:49:31.819Z,1184.00
2023-01-29T10:50:31.810Z,1196.00
2023-01-29T10:51:31.800Z,1236.00
2023-01-29T10:52:31.780Z,1248.00
2023-01-29T10:53:31.782Z,1268.00
2023-01-29T10:54:31.759Z,1240.00
2023-01-29T10:55:31.782Z,1260.00
2023-01-29T10:56:31.740Z,1240.00
2023-01-29T10:57:31.729Z,1256.00
2023-01-29T10:58:31.733Z,1328.00
2023-01-29T10:59:31.776Z,1400.00
2023-01-29T11:00:31.691Z,1412.00
2023-01-29T11:01:31.704Z,1436.00
2023-01-29T11:02:31.689Z,1472.00
2023-01-29T11:03:31.738Z,1500.00
2023-01-29T11:04:31.653Z,1552.00
2023-01-29T11:05:31.642Z,1612.00
2023-01-29T11:06:31.637Z,1676.00
2023-01-29T11:07:31.636Z,1704.00
2023-01-29T11:08:31.621Z,1736.00
2023-01-29T11:10:31.604Z,1828.00
2023-01-29T11:11:31.577Z,1860.00
2023-01-29T11:12:31.568Z,1904.00
2023-01-29T11:13:31.559Z,1936.00
2023-01-29T11:14:31.548Z,1960.00
2023-01-29T11:15:31.535Z,2000.00
2023-01-29T11:16:31.525Z,1960.00
2023-01-29T11:17:31.508Z,1892.00
2023-01-29T11:18:31.514Z,1908.00
2023-01-29T11:19:31.490Z,1976.00
2023-01-29T11:20:31.481Z,2016.00
2023-01-29T11:21:31.465Z,1972.00
2023-01-29T11:22:31.482Z,1932.00
2023-01-29T11:23:31.448Z,1864.00
2023-01-29T11:24:31.454Z,1816.00
2023-01-29T11:25:31.430Z,1688.00
2023-01-29T11:26:31.440Z,1648.00
2023-01-29T11:27:31.403Z,1660.00
2023-01-29T11:28:31.393Z,1656.00
2023-01-29T11:29:32.072Z,1656.00
2023-01-29T11:30:31.461Z,1684.00
2023-01-29T11:31:31.447Z,1748.00
2023-01-29T11:32:31.349Z,1792.00
2023-01-29T11:33:31.359Z,1828.00
2023-01-29T11:34:31.377Z,1828.00
2023-01-29T11:35:31.310Z,1844.00
2023-01-29T11:36:31.307Z,1804.00
2023-01-29T11:37:31.292Z,1876.00
2023-01-29T11:38:31.281Z,1984.00
2023-01-29T11:39:31.277Z,2032.00
2023-01-29T11:40:31.265Z,2016.00
2023-01-29T11:41:31.245Z,1988.00
2023-01-29T11:42:31.243Z,1912.00
2023-01-29T11:43:31.231Z,1900.00
2023-01-29T11:44:31.233Z,1896.00
2023-01-29T11:45:31.204Z,1876.00
2023-01-29T11:46:31.209Z,1864.00
2023-01-29T11:47:31.187Z,1916.00
2023-01-29T11:48:31.174Z,2008.00
2023-01-29T11:49:31.192Z,2024.00
2023-01-29T11:50:31.157Z,2104.00
2023-01-29T11:51:31.165Z,2108.00
2023-01-29T11:52:31.133Z,2064.00
2023-01-29T11:53:31.119Z,1976.00
2023-01-29T11:54:31.130Z,1904.00
2023-01-29T11:55:40.978Z,1920.00
2023-01-29T11:56:31.113Z,1844.00
2023-01-29T11:57:31.071Z,1860.00
2023-01-29T11:58:31.066Z,1856.00
2023-01-29T11:59:31.066Z,1756.00
2023-01-29T12:00:31.041Z,1740.00
2023-01-29T12:01:31.024Z,1700.00
2023-01-29T12:02:31.020Z,1732.00
2023-01-29T12:03:31.052Z,1624.00
2023-01-29T12:04:31.009Z,1724.00
2023-01-29T12:05:30.998Z,1720.00
2023-01-29T12:06:30.978Z,1672.00
2023-01-29T12:07:30.961Z,1668.00
2023-01-29T12:08:30.956Z,1700.00
2023-01-29T12:09:30.951Z,1716.00
2023-01-29T12:10:30.932Z,1748.00
2023-01-29T12:11:30.925Z,1780.00
2023-01-29T12:12:30.912Z,1772.00
2023-01-29T12:13:30.894Z,1764.00
2023-01-29T12:14:30.904Z,1844.00
2023-01-29T12:15:30.874Z,1880.00
2023-01-29T12:16:30.895Z,1896.00
2023-01-29T12:17:30.852Z,1976.00
2023-01-29T12:18:30.844Z,2004.00
2023-01-29T12:19:30.839Z,2004.00
2023-01-29T12:20:30.826Z,1956.00
2023-01-29T12:21:30.809Z,1996.00
2023-01-29T12:22:30.799Z,1920.00
2023-01-29T12:23:30.786Z,1908.00
2023-01-29T12:24:30.791Z,1832.00
2023-01-29T12:25:30.764Z,1836.00
2023-01-29T12:26:30.770Z,1868.00
2023-01-29T12:27:30.739Z,1828.00
2023-01-29T12:28:30.732Z,1808.00
2023-01-29T12:29:30.728Z,1828.00
2023-01-29T12:30:30.751Z,1784.00
2023-01-29T12:31:30.750Z,1728.00
2023-01-29T12:32:30.707Z,1760.00
2023-01-29T12:33:30.675Z,1744.00
2023-01-29T12:34:30.688Z,1720.00
2023-01-29T12:35:30.705Z,1728.00
2023-01-29T12:36:30.647Z,1720.00
2023-01-29T12:37:30.632Z,1724.00
2023-01-29T12:38:30.628Z,1700.00
2023-01-29T12:39:30.626Z,1752.00
2023-01-29T12:40:30.601Z,1708.00
2023-01-29T12:41:30.588Z,1852.00
2023-01-29T12:42:30.581Z,1852.00
2023-01-29T12:43:30.576Z,1884.00
2023-01-29T12:44:30.558Z,1880.00
2023-01-29T12:45:30.552Z,1916.00
2023-01-29T12:46:30.607Z,1908.00
2023-01-29T12:47:30.521Z,1992.00
2023-01-29T12:48:30.521Z,2024.00
2023-01-29T12:49:30.500Z,1980.00
2023-01-29T12:50:30.502Z,1964.00
2023-01-29T12:51:30.482Z,1944.00
2023-01-29T12:52:30.471Z,1956.00